createdAt,value
2022-08-04T00:00:44.765Z,59.67
2022-08-04T00:03:28.288Z,60.18
2022-08-04T00:06:14.425Z,60.11
2022-08-04T00:08:47.179Z,60.44
2022-08-04T00:11:28.774Z,60.82
2022-08-04T00:14:12.990Z,61.42
2022-08-04T00:16:43.094Z,61.25
2022-08-04T00:19:36.136Z,61.50
2022-08-04T00:22:09.035Z,61.62
2022-08-04T00:24:37.447Z,62.19
2022-08-04T00:27:05.234Z,62.11
2022-08-04T00:29:34.457Z,62.67
2022-08-04T00:32:06.653Z,62.54
2022-08-04T00:34:35.180Z,62.66
2022-08-04T00:37:03.880Z,62.63
2022-08-04T00:39:31.812Z,62.73
2022-08-04T00:42:15.453Z,62.92
2022-08-04T00:45:04.057Z,63.17
2022-08-04T00:47:59.078Z,62.99
2022-08-04T00:50:55.138Z,63.18
2022-08-04T00:53:35.513Z,63.60
2022-08-04T00:56:09.029Z,63.81
2022-08-04T00:58:47.053Z,64.39
2022-08-04T01:01:40.808Z,64.65
2022-08-04T01:04:42.410Z,64.76
2022-08-04T01:07:40.469Z,64.67
2022-08-04T01:10:36.750Z,64.66
2022-08-04T01:13:22.081Z,64.99
2022-08-04T01:16:11.251Z,65.11
2022-08-04T01:19:08.027Z,65.13
2022-08-04T01:21:44.667Z,65.11
2022-08-04T01:24:26.616Z,65.32
2022-08-04T01:27:09.606Z,65.42
2022-08-04T01:29:51.672Z,65.91
2022-08-04T01:32:36.913Z,66.06
2022-08-04T01:35:08.745Z,66.21
2022-08-04T01:38:18.149Z,66.34
2022-08-04T01:40:53.981Z,66.29
2022-08-04T01:43:21.678Z,66.75
2022-08-04T01:46:01.141Z,67.14
2022-08-04T01:48:29.535Z,66.91
2022-08-04T01:51:05.485Z,67.13
2022-08-04T01:53:39.019Z,67.19
2022-08-04T01:56:08.589Z,67.40
2022-08-04T01:58:38.270Z,67.53
2022-08-04T02:01:12.622Z,68.07
2022-08-04T02:04:21.273Z,68.33
2022-08-04T02:06:54.770Z,68.31
2022-08-04T02:09:54.350Z,68.90
2022-08-04T02:12:32.424Z,69.52
2022-08-04T02:15:17.552Z,69.31
2022-08-04T02:17:57.128Z,69.01
2022-08-04T02:20:29.211Z,69.31
2022-08-04T02:23:05.460Z,69.82
2022-08-04T02:25:46.810Z,70.18
2022-08-04T02:28:30.001Z,70.08
2022-08-04T02:31:07.739Z,69.93
2022-08-04T02:33:42.156Z,70.11
2022-08-04T02:36:21.107Z,70.62
2022-08-04T02:39:01.279Z,70.74
2022-08-04T02:41:30.760Z,70.91
2022-08-04T02:44:04.333Z,71.09
2022-08-04T02:46:33.960Z,71.23
2022-08-04T02:49:07.048Z,71.34
2022-08-04T02:51:42.531Z,71.28
2022-08-04T02:54:10.280Z,71.14
2022-08-04T02:56:39.547Z,71.13
2022-08-04T02:59:09.854Z,71.30
2022-08-04T03:01:38.087Z,71.90
2022-08-04T03:04:27.533Z,71.57
2022-08-04T03:07:23.626Z,71.66
2022-08-04T03:09:51.040Z,71.74
2022-08-04T03:12:47.352Z,71.14
2022-08-04T03:15:23.851Z,71.35
2022-08-04T03:17:54.318Z,71.82
2022-08-04T03:20:49.633Z,71.52
2022-08-04T03:23:45.832Z,71.29
2022-08-04T03:26:18.920Z,71.27
2022-08-04T03:29:13.400Z,71.18
2022-08-04T03:32:13.955Z,70.26
2022-08-04T03:34:56.194Z,70.80
2022-08-04T03:37:51.128Z,70.55
2022-08-04T03:40:47.974Z,69.72
2022-08-04T03:43:58.978Z,69.90
2022-08-04T03:46:53.783Z,70.04
2022-08-04T03:49:39.650Z,69.65
2022-08-04T03:52:31.739Z,70.30
2022-08-04T03:55:44.068Z,69.37
2022-08-04T03:58:14.211Z,68.91
2022-08-04T04:01:07.501Z,68.91
2022-08-04T04:04:12.440Z,68.13
2022-08-04T04:07:10.737Z,68.20
2022-08-04T04:10:12.374Z,67.49
2022-08-04T04:13:21.707Z,67.58
2022-08-04T04:16:14.981Z,66.06
2022-08-04T04:19:12.307Z,66.88
2022-08-04T04:22:17.169Z,66.38
2022-08-04T04:24:56.911Z,66.65
2022-08-04T04:27:57.896Z,65.47
2022-08-04T04:31:31.113Z,64.37
2022-08-04T04:34:51.945Z,64.39
2022-08-04T04:37:34.194Z,64.17
2022-08-04T04:40:19.837Z,62.16
2022-08-04T04:43:09.655Z,61.81
2022-08-04T04:46:11.127Z,60.20
2022-08-04T04:48:48.366Z,59.69
2022-08-04T04:51:34.690Z,59.91
2022-08-04T04:54:08.564Z,59.57
2022-08-04T04:57:04.761Z,59.52
2022-08-04T04:59:36.917Z,59.46
2022-08-04T05:02:42.677Z,59.77
2022-08-04T05:05:31.469Z,59.15
2022-08-04T05:08:43.225Z,58.95
2022-08-04T05:11:32.826Z,58.77
2022-08-04T05:14:34.838Z,58.97
2022-08-04T05:17:11.077Z,58.99
2022-08-04T05:19:59.008Z,58.52
2022-08-04T05:22:52.989Z,58.31
2022-08-04T05:25:27.474Z,57.43
2022-08-04T05:28:16.657Z,56.93
2022-08-04T05:30:49.784Z,56.86
2022-08-04T05:33:29.066Z,56.97
2022-08-04T05:36:19.212Z,56.52
2022-08-04T05:38:53.967Z,54.82
2022-08-04T05:41:23.170Z,53.46
2022-08-04T05:44:01.263Z,52.18
2022-08-04T05:46:31.109Z,51.42
2022-08-04T05:48:58.653Z,50.30
2022-08-04T05:51:28.245Z,48.98
2022-08-04T05:53:57.664Z,47.58
2022-08-04T05:56:26.537Z,47.06
2022-08-04T05:58:54.567Z,48.33
2022-08-04T06:01:24.532Z,47.52
2022-08-04T06:03:53.288Z,48.63
2022-08-04T06:06:22.870Z,48.68
2022-08-04T06:08:54.543Z,48.42
2022-08-04T06:11:23.363Z,48.93
2022-08-04T06:14:04.719Z,48.53
2022-08-04T06:16:47.037Z,48.41
2022-08-04T06:20:03.139Z,48.41
2022-08-04T06:22:12.289Z,48.84
2022-08-04T06:24:41.732Z,48.02
2022-08-04T06:27:10.005Z,48.19
2022-08-04T06:29:40.764Z,48.42
2022-08-04T06:32:40.051Z,47.89
2022-08-04T06:35:10.111Z,47.93
2022-08-04T06:37:42.388Z,47.88
2022-08-04T06:40:29.970Z,47.89
2022-08-04T06:43:06.458Z,47.92
2022-08-04T06:45:39.907Z,47.76
2022-08-04T06:48:08.850Z,47.58
2022-08-04T06:51:27.337Z,47.52
2022-08-04T06:53:27.030Z,46.53
2022-08-04T06:55:56.363Z,46.53
2022-08-04T06:58:25.013Z,46.58
2022-08-04T07:00:54.930Z,46.07
2022-08-04T07:03:22.879Z,46.25
2022-08-04T07:05:51.521Z,45.39
2022-08-04T07:08:20.260Z,45.60
2022-08-04T07:10:48.714Z,46.09
2022-08-04T07:13:18.161Z,45.82
2022-08-04T07:15:47.428Z,45.74
2022-08-04T07:18:15.045Z,45.16
2022-08-04T07:20:47.184Z,44.93
2022-08-04T07:23:21.344Z,44.84
2022-08-04T07:25:59.911Z,44.38
2022-08-04T07:28:41.409Z,44.74
2022-08-04T07:31:33.172Z,44.96
2022-08-04T07:34:16.495Z,44.48
2022-08-04T07:36:55.317Z,43.69
2022-08-04T07:39:27.906Z,42.80
2022-08-04T07:41:59.061Z,43.56
2022-08-04T07:44:27.387Z,42.79
2022-08-04T07:46:55.273Z,41.93
2022-08-04T07:49:54.870Z,42.19
2022-08-04T07:52:12.709Z,41.49
2022-08-04T07:54:40.645Z,40.98
2022-08-04T07:57:08.131Z,39.69
2022-08-04T07:59:50.143Z,39.49
2022-08-04T08:02:21.037Z,38.57
2022-08-04T08:04:49.271Z,38.20
2022-08-04T08:07:18.703Z,38.03
2022-08-04T08:09:46.126Z,36.74
2022-08-04T08:12:38.380Z,36.71
2022-08-04T08:15:02.074Z,35.71
2022-08-04T08:17:29.608Z,34.97
2022-08-04T08:19:56.999Z,34.63
2022-08-04T08:22:25.034Z,34.29
2022-08-04T08:24:52.584Z,33.33
2022-08-04T08:27:20.833Z,32.66
2022-08-04T08:29:49.007Z,31.99
2022-08-04T08:32:16.899Z,31.82
2022-08-04T08:34:45.571Z,31.03
2022-08-04T08:37:27.203Z,30.31
2022-08-04T08:40:13.543Z,30.31
2022-08-04T08:43:03.679Z,29.86
2022-08-04T08:46:10.694Z,29.30
2022-08-04T08:48:43.970Z,29.08
2022-08-04T08:51:48.280Z,27.97
2022-08-04T08:55:17.049Z,26.79
2022-08-04T08:58:22.251Z,26.82
2022-08-04T09:01:02.139Z,27.17
2022-08-04T09:03:46.218Z,26.22
2022-08-04T09:06:22.446Z,26.13
2022-08-04T09:09:08.888Z,26.06
2022-08-04T09:11:50.087Z,26.28
2022-08-04T09:14:28.952Z,25.19
2022-08-04T09:17:03.376Z,26.29
2022-08-04T09:19:37.829Z,25.75
2022-08-04T09:22:36.097Z,25.02
2022-08-04T09:25:18.201Z,24.73
2022-08-04T09:27:56.107Z,24.23
2022-08-04T09:30:52.322Z,23.48
2022-08-04T09:33:22.755Z,22.32
2022-08-04T09:36:13.317Z,22.49
2022-08-04T09:39:26.259Z,22.12
2022-08-04T09:42:12.815Z,22.24
2022-08-04T09:45:26.759Z,21.84
2022-08-04T09:48:09.447Z,21.48
2022-08-04T09:50:50.103Z,21.93
2022-08-04T09:53:42.492Z,21.28
2022-08-04T09:56:26.812Z,20.77
2022-08-04T09:59:22.318Z,20.45
2022-08-04T10:02:00.098Z,20.42
2022-08-04T10:04:32.060Z,20.76
2022-08-04T10:07:15.911Z,20.77
2022-08-04T10:10:31.663Z,20.90
2022-08-04T10:13:02.033Z,21.14
2022-08-04T10:16:07.775Z,20.47
2022-08-04T10:18:58.639Z,20.14
2022-08-04T10:21:50.745Z,20.06
2022-08-04T10:24:33.084Z,19.90
2022-08-04T10:27:16.566Z,19.78
2022-08-04T10:29:48.928Z,19.45
2022-08-04T10:32:26.530Z,19.27
2022-08-04T10:35:15.551Z,19.58
2022-08-04T10:38:07.833Z,19.09
2022-08-04T10:41:09.379Z,18.51
2022-08-04T10:43:42.854Z,18.85
2022-08-04T10:46:22.110Z,18.43
2022-08-04T10:49:10.122Z,19.54
2022-08-04T10:51:59.793Z,19.51
2022-08-04T10:54:43.885Z,20.25
2022-08-04T10:57:29.866Z,19.71
2022-08-04T11:00:09.168Z,19.33
2022-08-04T11:02:51.781Z,19.78
2022-08-04T11:05:43.684Z,19.47
2022-08-04T11:08:21.529Z,19.31
2022-08-04T11:11:23.384Z,19.18
2022-08-04T11:14:04.880Z,19.67
2022-08-04T11:17:03.221Z,19.79
2022-08-04T11:20:18.079Z,20.36
2022-08-04T11:23:16.016Z,19.87
2022-08-04T11:26:15.587Z,20.48
2022-08-04T11:29:04.422Z,20.52
2022-08-04T11:31:35.508Z,20.34
2022-08-04T11:34:09.138Z,20.27
2022-08-04T11:36:42.228Z,20.50
2022-08-04T11:39:12.677Z,20.85
2022-08-04T11:42:14.217Z,20.50
2022-08-04T11:45:05.896Z,20.60
2022-08-04T11:47:40.047Z,20.72
2022-08-04T11:50:38.382Z,20.33
2022-08-04T11:53:06.873Z,21.09
2022-08-04T11:56:07.939Z,21.57
2022-08-04T11:58:23.849Z,22.47
2022-08-04T12:01:21.835Z,21.98
2022-08-04T12:04:14.095Z,21.61
2022-08-04T12:07:15.083Z,21.34
2022-08-04T12:09:58.640Z,21.44
2022-08-04T12:12:57.314Z,21.46
2022-08-04T12:15:45.824Z,22.08
2022-08-04T12:18:40.446Z,22.67
2022-08-04T12:21:34.627Z,22.88
2022-08-04T12:24:08.549Z,23.32
2022-08-04T12:26:41.398Z,24.06
2022-08-04T12:29:12.393Z,23.64
2022-08-04T12:31:56.990Z,23.38
2022-08-04T12:34:33.413Z,24.12
2022-08-04T12:37:37.848Z,23.89
2022-08-04T12:40:28.930Z,23.66
2022-08-04T12:43:08.016Z,23.64
2022-08-04T12:45:36.491Z,23.32
2022-08-04T12:48:06.339Z,23.12
2022-08-04T12:50:34.568Z,23.57
2022-08-04T12:53:11.005Z,23.77
2022-08-04T12:55:45.025Z,23.64
2022-08-04T12:58:42.579Z,23.15
2022-08-04T13:02:08.820Z,24.10
2022-08-04T13:04:14.469Z,24.13
2022-08-04T13:06:43.708Z,23.68
2022-08-04T13:09:20.554Z,23.24
2022-08-04T13:11:55.811Z,23.86
2022-08-04T13:14:27.549Z,24.19
2022-08-04T13:17:02.730Z,23.31
2022-08-04T13:19:31.485Z,23.28
2022-08-04T13:22:09.526Z,22.84
2022-08-04T13:24:56.268Z,22.79
2022-08-04T13:27:28.112Z,23.34
2022-08-04T13:30:14.705Z,23.26
2022-08-04T13:32:55.574Z,23.71
2022-08-04T13:35:29.201Z,24.03
2022-08-04T13:38:14.641Z,23.90
2022-08-04T13:40:44.144Z,24.20
2022-08-04T13:44:16.294Z,23.63
2022-08-04T13:46:26.981Z,24.28
2022-08-04T13:49:26.047Z,24.14
2022-08-04T13:52:01.497Z,24.15
2022-08-04T13:54:44.149Z,23.92
2022-08-04T13:57:23.618Z,24.56
2022-08-04T14:00:03.474Z,23.83
2022-08-04T14:02:46.772Z,24.38
2022-08-04T14:05:36.743Z,24.90
2022-08-04T14:08:29.104Z,24.52
2022-08-04T14:10:59.996Z,25.17
2022-08-04T14:13:41.117Z,24.59
2022-08-04T14:16:22.489Z,24.61
2022-08-04T14:19:01.146Z,23.77
2022-08-04T14:21:35.496Z,24.04
2022-08-04T14:24:03.067Z,24.02
2022-08-04T14:26:35.609Z,24.33
2022-08-04T14:29:27.690Z,24.41
2022-08-04T14:32:12.622Z,24.23
2022-08-04T14:34:44.810Z,23.87
2022-08-04T14:37:19.352Z,24.14
2022-08-04T14:40:18.877Z,24.94
2022-08-04T14:42:55.586Z,23.68
2022-08-04T14:45:37.294Z,23.73
2022-08-04T14:48:10.511Z,23.94
2022-08-04T14:50:43.383Z,23.51
2022-08-04T14:53:13.462Z,23.92
2022-08-04T14:55:52.896Z,23.25
2022-08-04T14:58:36.108Z,23.48
2022-08-04T15:01:12.075Z,23.94
2022-08-04T15:03:48.234Z,23.06
2022-08-04T15:06:26.441Z,23.58
2022-08-04T15:08:59.432Z,23.84
2022-08-04T15:11:27.795Z,23.42
2022-08-04T15:13:57.284Z,23.47
2022-08-04T15:16:27.470Z,23.95
2022-08-04T15:18:56.808Z,23.35
2022-08-04T15:21:28.194Z,24.04
2022-08-04T15:23:57.444Z,23.36
2022-08-04T15:26:49.268Z,23.58
2022-08-04T15:30:00.855Z,23.62
2022-08-04T15:32:41.894Z,24.68
2022-08-04T15:35:12.691Z,23.67
2022-08-04T15:37:58.692Z,24.26
2022-08-04T15:40:45.261Z,24.10
2022-08-04T15:43:31.848Z,24.62
2022-08-04T15:46:43.135Z,24.15
2022-08-04T15:48:52.545Z,24.06
2022-08-04T15:51:32.806Z,24.45
2022-08-04T15:54:03.263Z,24.10
2022-08-04T15:56:31.561Z,24.87
2022-08-04T15:58:59.283Z,24.76
2022-08-04T16:01:27.744Z,24.70
2022-08-04T16:04:00.519Z,24.95
2022-08-04T16:06:29.733Z,25.33
2022-08-04T16:09:03.483Z,25.34
2022-08-04T16:11:32.854Z,25.47
2022-08-04T16:14:04.000Z,25.71
2022-08-04T16:16:37.388Z,25.33
2022-08-04T16:19:05.821Z,25.69
2022-08-04T16:21:51.739Z,25.92
2022-08-04T16:24:28.162Z,25.55
2022-08-04T16:26:57.813Z,25.35
2022-08-04T16:29:28.878Z,25.52
2022-08-04T16:32:06.108Z,25.06
2022-08-04T16:35:00.882Z,25.55
2022-08-04T16:37:37.647Z,25.65
2022-08-04T16:40:36.293Z,25.30
2022-08-04T16:43:26.280Z,25.36
2022-08-04T16:46:02.687Z,25.00
2022-08-04T16:48:32.851Z,25.39
2022-08-04T16:51:15.285Z,25.10
2022-08-04T16:54:03.416Z,25.31
2022-08-04T16:56:35.290Z,25.55
2022-08-04T16:59:11.422Z,25.50
2022-08-04T17:01:49.752Z,25.82
2022-08-04T17:04:18.056Z,25.91
2022-08-04T17:06:46.868Z,25.90
2022-08-04T17:09:17.490Z,25.73
2022-08-04T17:11:46.735Z,26.07
2022-08-04T17:14:20.909Z,25.98
2022-08-04T17:16:50.595Z,25.86
2022-08-04T17:19:24.153Z,26.04
2022-08-04T17:22:07.325Z,26.44
2022-08-04T17:24:40.682Z,26.34
2022-08-04T17:28:19.683Z,26.25
2022-08-04T17:29:57.784Z,26.30
2022-08-04T17:32:25.410Z,26.73
2022-08-04T17:37:52.889Z,26.62
2022-08-04T17:40:25.518Z,26.62
2022-08-04T17:44:05.241Z,26.85
2022-08-04T17:46:28.702Z,27.06
2022-08-04T17:49:10.983Z,27.59
2022-08-04T17:54:39.012Z,27.75
2022-08-04T17:57:20.034Z,27.90
2022-08-04T18:00:00.142Z,27.72
2022-08-04T18:02:32.227Z,27.75
2022-08-04T18:05:06.739Z,28.04
2022-08-04T18:08:34.623Z,28.26
2022-08-04T18:10:57.306Z,27.90
2022-08-04T18:13:26.335Z,28.39
2022-08-04T18:16:05.014Z,28.51
2022-08-04T18:18:33.033Z,28.58
2022-08-04T18:21:02.791Z,28.54
2022-08-04T18:23:33.236Z,28.97
2022-08-04T18:26:03.577Z,28.96
2022-08-04T18:28:33.241Z,29.16
2022-08-04T18:31:01.829Z,28.93
2022-08-04T18:33:39.671Z,29.21
2022-08-04T18:36:32.890Z,29.16
2022-08-04T18:39:12.551Z,30.23
2022-08-04T18:44:52.385Z,30.35
2022-08-04T18:47:23.345Z,30.43
2022-08-04T18:52:45.707Z,30.48
2022-08-04T18:55:56.131Z,31.04
2022-08-04T18:58:06.291Z,30.81
2022-08-04T19:00:39.377Z,30.84
2022-08-04T19:03:16.180Z,31.21
2022-08-04T19:05:44.214Z,32.02
2022-08-04T19:08:34.579Z,31.86
2022-08-04T19:11:37.287Z,31.63
2022-08-04T19:13:54.581Z,31.99
2022-08-04T19:16:30.398Z,32.27
2022-08-04T19:19:00.421Z,32.03
2022-08-04T19:21:58.677Z,32.18
2022-08-04T19:24:32.666Z,32.65
2022-08-04T19:27:08.268Z,32.56
2022-08-04T19:29:40.588Z,32.78
2022-08-04T19:32:14.674Z,32.57
2022-08-04T19:34:46.031Z,32.63
2022-08-04T19:37:58.533Z,32.93
2022-08-04T19:40:08.023Z,33.21
2022-08-04T19:42:36.972Z,33.15
2022-08-04T19:45:05.913Z,33.38
2022-08-04T19:48:17.714Z,33.58
2022-08-04T19:50:23.640Z,33.96
2022-08-04T19:52:52.687Z,33.76
2022-08-04T19:55:36.877Z,33.90
2022-08-04T19:58:08.393Z,33.97
2022-08-04T20:00:38.028Z,34.27
2022-08-04T20:03:11.937Z,34.46
2022-08-04T20:05:54.975Z,36.29
2022-08-04T20:08:26.717Z,36.12
2022-08-04T20:10:56.251Z,36.29
2022-08-04T20:13:36.917Z,37.05
2022-08-04T20:16:28.658Z,36.41
2022-08-04T20:18:56.923Z,35.83
2022-08-04T20:21:53.936Z,36.86
2022-08-04T20:24:37.619Z,36.91
2022-08-04T20:27:07.713Z,36.54
2022-08-04T20:29:40.737Z,36.62
2022-08-04T20:32:09.779Z,36.70
2022-08-04T20:34:41.378Z,37.62
2022-08-04T20:37:10.159Z,37.36
2022-08-04T20:39:38.249Z,36.98
2022-08-04T20:42:06.633Z,37.56
2022-08-04T20:44:34.576Z,37.28
2022-08-04T20:47:02.304Z,37.45
2022-08-04T20:49:35.391Z,37.29
2022-08-04T20:52:13.387Z,38.28
2022-08-04T20:54:48.133Z,38.83
2022-08-04T20:57:47.396Z,37.77
2022-08-04T21:00:05.870Z,38.49
2022-08-04T21:02:33.495Z,38.86
2022-08-04T21:05:04.597Z,38.04
2022-08-04T21:07:36.490Z,38.88
2022-08-04T21:10:11.122Z,39.30
2022-08-04T21:12:39.027Z,39.49
2022-08-04T21:15:14.112Z,39.63
2022-08-04T21:17:59.415Z,38.89
2022-08-04T21:20:33.174Z,40.25
2022-08-04T21:23:02.370Z,40.00
2022-08-04T21:25:31.378Z,40.59
2022-08-04T21:28:04.226Z,39.82
2022-08-04T21:30:32.797Z,41.43
2022-08-04T21:33:04.980Z,40.62
2022-08-04T21:35:37.787Z,41.75
2022-08-04T21:38:17.179Z,40.58
2022-08-04T21:40:53.575Z,40.52
2022-08-04T21:43:23.641Z,43.27
2022-08-04T21:45:56.664Z,45.24
2022-08-04T21:48:27.294Z,42.69
2022-08-04T21:50:55.507Z,43.49
2022-08-04T21:53:24.758Z,42.02
2022-08-04T21:56:06.888Z,43.85
2022-08-04T21:58:37.398Z,44.32
2022-08-04T22:01:13.057Z,42.99
2022-08-04T22:03:53.768Z,44.65
2022-08-04T22:06:28.473Z,43.86
2022-08-04T22:08:57.527Z,43.07
2022-08-04T22:11:48.493Z,44.34
2022-08-04T22:14:17.541Z,45.61
2022-08-04T22:16:56.352Z,43.44
2022-08-04T22:19:40.970Z,44.20
2022-08-04T22:22:13.552Z,44.14
2022-08-04T22:24:52.499Z,44.33
2022-08-04T22:27:38.622Z,44.52
2022-08-04T22:30:11.782Z,44.74
2022-08-04T22:32:47.586Z,44.21
2022-08-04T22:35:35.695Z,44.29
2022-08-04T22:38:05.648Z,45.97
2022-08-04T22:40:35.382Z,46.17
2022-08-04T22:43:03.386Z,45.14
2022-08-04T22:45:50.849Z,45.67
2022-08-04T22:48:19.030Z,45.38
2022-08-04T22:50:46.606Z,45.69
2022-08-04T22:53:17.689Z,45.53
2022-08-04T22:56:07.475Z,46.14
2022-08-04T22:58:33.618Z,45.43
2022-08-04T23:01:01.662Z,46.27
2022-08-04T23:03:36.928Z,46.22
2022-08-04T23:06:11.762Z,46.38
2022-08-04T23:08:43.180Z,46.18
2022-08-04T23:11:15.838Z,46.61
2022-08-04T23:13:43.409Z,46.23
2022-08-04T23:16:11.190Z,46.31
2022-08-04T23:18:40.073Z,46.66
2022-08-04T23:21:11.644Z,46.90
2022-08-04T23:23:45.682Z,46.97
2022-08-04T23:26:28.898Z,47.37
2022-08-04T23:28:57.002Z,46.80
2022-08-04T23:31:40.422Z,47.13
2022-08-04T23:34:09.089Z,47.04
2022-08-04T23:36:39.769Z,47.10
2022-08-04T23:39:07.318Z,47.09
2022-08-04T23:41:53.291Z,47.60
2022-08-04T23:44:26.541Z,47.53
2022-08-04T23:46:59.114Z,47.20
2022-08-04T23:49:43.543Z,47.61
2022-08-04T23:52:23.481Z,47.50
2022-08-04T23:54:58.364Z,47.58
2022-08-04T23:57:30.787Z,48.27
